Time;durP1;ratioP1;P1;durP2;ratioP2;P2;SDS_P1;SDS_P2;PMS_P1;PMS_P2;Temp;Humidity;BMP_temperature;BMP_pressure;BME280_temperature;BME280_humidity;BME280_pressure;Samples;Min_cycle;Max_cycle;Signal;HPM_P1;HPM_P2
2023/09/04 00:00:56;;;;;;;6.07;2.97;;;;;;;-142.57;66.96;115900.28;4935710;29;20046;-81
2023/09/04 00:03:23;;;;;;;6.55;2.97;;;;;;;-142.57;66.67;115900.28;4940101;29;20386;-82
2023/09/04 00:05:49;;;;;;;5.68;3.35;;;;;;;-142.57;66.85;115900.28;4935463;29;20655;-82
2023/09/04 00:08:15;;;;;;;13.32;3.85;;;;;;;-142.57;66.01;115900.28;4935249;29;20043;-82
2023/09/04 00:10:40;;;;;;;7.63;3.08;;;;;;;-142.57;66.87;115900.28;4935342;29;20042;-82
2023/09/04 00:13:06;;;;;;;8.30;3.13;;;;;;;-142.57;67.37;115900.28;4937575;29;20047;-80
2023/09/04 00:15:32;;;;;;;3.67;2.60;;;;;;;-142.57;67.47;115900.28;4935400;29;20057;-81
2023/09/04 00:17:57;;;;;;;4.50;2.92;;;;;;;-142.57;68.24;115900.28;4935766;29;20039;-81
2023/09/04 00:20:24;;;;;;;5.18;3.08;;;;;;;-142.57;67.68;115900.28;4936125;29;20043;-82
2023/09/04 00:22:50;;;;;;;7.60;3.00;;;;;;;-142.57;68.46;115900.28;4935743;29;20401;-82
2023/09/04 00:25:16;;;;;;;6.38;3.13;;;;;;;-142.57;69.97;115900.28;4936340;29;20046;-82
2023/09/04 00:27:42;;;;;;;6.65;3.30;;;;;;;-142.57;70.79;115900.28;4949263;29;20070;-81
2023/09/04 00:30:08;;;;;;;9.45;3.25;;;;;;;-142.57;71.61;115900.28;4953607;29;20100;-82
2023/09/04 00:32:34;;;;;;;10.35;3.60;;;;;;;-142.57;70.29;115900.28;4957475;28;20401;-81
2023/09/04 00:35:00;;;;;;;8.48;3.92;;;;;;;-142.57;71.88;115900.28;4958106;28;20404;-81
2023/09/04 00:37:25;;;;;;;7.28;3.25;;;;;;;-142.57;70.89;115900.28;4956872;29;20122;-83
2023/09/04 00:39:51;;;;;;;6.82;3.35;;;;;;;-142.57;71.30;115900.28;4958314;29;20043;-81
2023/09/04 00:42:16;;;;;;;10.05;3.70;;;;;;;-142.57;71.28;115900.28;4958467;28;20027;-82
2023/09/04 00:44:46;;;;;;;7.20;3.33;;;;;;;-142.57;70.03;115900.28;4958310;28;20050;-82
2023/09/04 00:47:14;;;;;;;7.60;3.17;;;;;;;-142.57;70.36;115900.28;4949102;28;20545;-82
2023/09/04 00:49:41;;;;;;;10.45;3.63;;;;;;;-142.57;69.43;115900.28;4956723;29;20500;-81
2023/09/04 00:52:10;;;;;;;5.70;3.30;;;;;;;-142.57;70.07;115900.28;4956566;28;20028;-80
2023/09/04 00:54:37;;;;;;;13.77;3.42;;;;;;;-142.57;70.18;115900.28;4958156;28;20023;-80
2023/09/04 00:57:06;;;;;;;6.68;3.50;;;;;;;-142.57;70.00;115900.28;4956399;28;20027;-81
2023/09/04 00:59:32;;;;;;;5.68;3.22;;;;;;;-142.57;70.64;115900.28;4938677;29;20039;-80
2023/09/04 01:02:00;;;;;;;8.90;3.50;;;;;;;-142.57;69.75;115900.28;4937806;29;20040;-81
2023/09/04 01:04:26;;;;;;;5.47;3.38;;;;;;;-142.57;71.83;115900.28;4941051;29;20091;-83
2023/09/04 01:06:53;;;;;;;7.28;3.60;;;;;;;-142.57;71.34;115900.28;4937014;29;20063;-79
2023/09/04 01:09:21;;;;;;;7.22;3.50;;;;;;;-142.57;71.87;115900.28;4955654;29;20497;-82
2023/09/04 01:11:51;;;;;;;7.93;3.50;;;;;;;-142.57;73.82;115900.28;4957503;28;20036;-83
2023/09/04 01:14:19;;;;;;;5.97;3.40;;;;;;;-142.57;74.41;115900.28;4957778;28;20063;-81
2023/09/04 01:16:46;;;;;;;8.80;3.40;;;;;;;-142.57;74.98;115900.28;4954615;29;20119;-82
2023/09/04 01:19:12;;;;;;;5.47;3.15;;;;;;;-142.57;74.36;115900.28;4945751;28;20627;-81
2023/09/04 01:21:38;;;;;;;6.75;3.65;;;;;;;-142.57;74.13;115900.28;4937097;29;20047;-82
2023/09/04 01:24:04;;;;;;;6.07;3.38;;;;;;;-142.57;72.91;115900.28;4937441;29;20115;-82
2023/09/04 01:26:51;;;;;;;11.35;3.60;;;;;;;-142.57;73.29;115900.28;4938382;29;20397;-81
2023/09/04 01:29:28;;;;;;;8.70;3.45;;;;;;;-142.57;74.79;115900.28;4954029;28;20039;-82
2023/09/04 01:32:03;;;;;;;11.30;3.65;;;;;;;-142.57;74.54;115900.28;4938932;29;20028;-80
2023/09/04 01:34:37;;;;;;;7.35;3.60;;;;;;;-142.57;75.60;115900.28;4941253;29;20040;-83
2023/09/04 01:37:04;;;;;;;13.90;4.00;;;;;;;-142.57;78.49;115900.28;4958283;29;20031;-81
2023/09/04 01:39:30;;;;;;;7.22;3.55;;;;;;;-142.57;80.78;115900.28;4961539;29;20031;-82
2023/09/04 01:41:56;;;;;;;8.50;3.92;;;;;;;-142.57;80.80;115900.28;4959293;28;20515;-82
2023/09/04 01:44:22;;;;;;;9.13;3.92;;;;;;;-142.57;81.78;115900.28;4956090;28;20400;-81
2023/09/04 01:46:48;;;;;;;11.18;3.88;;;;;;;-142.57;83.53;115900.28;4957765;29;20118;-82
2023/09/04 01:49:14;;;;;;;7.72;3.40;;;;;;;-142.57;86.02;115900.28;4957602;28;20050;-80
2023/09/04 01:51:40;;;;;;;9.32;3.70;;;;;;;-142.57;86.85;115900.28;4956095;29;20035;-82
2023/09/04 01:54:05;;;;;;;5.80;3.67;;;;;;;-142.57;87.76;115900.28;4956795;29;20098;-80
2023/09/04 01:56:31;;;;;;;8.88;4.40;;;;;;;-142.57;89.75;115900.28;4948813;28;20473;-81
2023/09/04 01:58:57;;;;;;;8.18;3.60;;;;;;;-142.57;90.13;115900.28;4936383;29;20533;-79
2023/09/04 02:01:22;;;;;;;8.98;4.20;;;;;;;-142.57;91.43;115900.28;4936673;29;20039;-81
2023/09/04 02:03:56;;;;;;;5.53;3.88;;;;;;;-142.57;94.17;115900.28;4937792;29;20040;-82
2023/09/04 02:06:23;;;;;;;8.70;4.07;;;;;;;-142.57;94.70;115900.28;4949484;29;20397;-80
2023/09/04 02:08:50;;;;;;;7.20;4.00;;;;;;;-142.57;95.04;115900.28;4956458;29;20114;-83
2023/09/04 02:11:16;;;;;;;10.60;4.00;;;;;;;-142.57;94.62;115900.28;4956995;28;20143;-81
2023/09/04 02:13:41;;;;;;;7.50;4.15;;;;;;;-142.57;94.90;115900.28;4956568;28;20393;-84
2023/09/04 02:16:07;;;;;;;8.18;4.25;;;;;;;-142.57;94.57;115900.28;4953365;29;20046;-82
2023/09/04 02:18:32;;;;;;;13.30;6.00;;;;;;;-142.57;94.28;115900.28;4955159;29;20477;-80
2023/09/04 02:21:00;;;;;;;7.50;4.45;;;;;;;-142.57;95.46;115900.28;4955341;29;20042;-81
2023/09/04 02:23:26;;;;;;;7.65;4.18;;;;;;;-142.57;95.56;115900.28;4955360;29;20351;-82
2023/09/04 02:25:51;;;;;;;7.60;4.03;;;;;;;-142.57;94.13;115900.28;4955268;29;20046;-81
2023/09/04 02:28:17;;;;;;;10.57;4.35;;;;;;;-142.57;96.34;115900.28;4946030;29;20039;-81
2023/09/04 02:30:43;;;;;;;11.80;4.57;;;;;;;-142.57;97.96;115900.28;4955895;28;20405;-82
2023/09/04 02:33:09;;;;;;;7.40;5.32;;;;;;;-142.57;98.19;115900.28;4954757;29;20050;-80
2023/09/04 02:35:34;;;;;;;10.95;5.07;;;;;;;-142.57;100.00;115900.28;4954645;28;20035;-81
2023/09/04 02:38:00;;;;;;;11.05;6.05;;;;;;;-142.57;100.00;115900.28;4955210;28;20099;-80
2023/09/04 02:40:25;;;;;;;10.75;6.28;;;;;;;-142.57;100.00;115900.28;4954909;29;20043;-81
2023/09/04 02:42:51;;;;;;;10.98;6.05;;;;;;;-142.57;100.00;115900.28;4956771;28;20039;-81
2023/09/04 02:45:17;;;;;;;10.05;6.50;;;;;;;-142.57;100.00;115900.28;4954546;29;20437;-82
2023/09/04 02:47:42;;;;;;;13.30;7.80;;;;;;;-142.57;100.00;115900.28;4941222;28;20043;-82
2023/09/04 02:50:08;;;;;;;11.20;8.15;;;;;;;-142.57;100.00;115900.28;4936420;29;20115;-80
2023/09/04 02:52:34;;;;;;;14.90;7.40;;;;;;;-142.57;100.00;115900.28;4937242;29;20019;-80
2023/09/04 02:55:00;;;;;;;15.25;7.65;;;;;;;-142.57;100.00;115900.28;4935730;29;20119;-83
2023/09/04 02:57:28;;;;;;;15.25;8.88;;;;;;;-142.57;100.00;115900.28;4945928;29;20027;-79
2023/09/04 02:59:54;;;;;;;17.60;8.57;;;;;;;-142.57;100.00;115900.28;4957026;29;20508;-82
2023/09/04 03:02:21;;;;;;;17.58;8.73;;;;;;;-142.57;100.00;115900.28;4953924;29;20103;-82
2023/09/04 03:04:53;;;;;;;10.15;8.10;;;;;;;-142.57;100.00;115900.28;4970623;28;20445;-83
2023/09/04 03:07:18;;;;;;;19.25;8.32;;;;;;;-142.57;100.00;115900.28;4951379;28;20504;-82
2023/09/04 03:09:44;;;;;;;11.93;7.07;;;;;;;-142.57;100.00;115900.28;4936494;29;20036;-82
2023/09/04 03:12:09;;;;;;;13.82;6.28;;;;;;;-142.57;100.00;115900.28;4934670;29;20110;-81
2023/09/04 03:14:35;;;;;;;9.63;6.03;;;;;;;-142.57;100.00;115900.28;4937227;29;20043;-82
2023/09/04 03:17:00;;;;;;;10.57;5.55;;;;;;;-142.57;100.00;115900.28;4936550;29;20023;-82
2023/09/04 03:19:27;;;;;;;10.75;5.28;;;;;;;-142.57;100.00;115900.28;4964659;28;20036;-83
2023/09/04 03:21:53;;;;;;;9.57;5.47;;;;;;;-142.57;100.00;115900.28;4954108;29;20031;-80
2023/09/04 03:24:20;;;;;;;15.63;6.07;;;;;;;-142.57;100.00;115900.28;4955108;29;20086;-81
2023/09/04 03:26:46;;;;;;;9.98;5.47;;;;;;;-142.57;100.00;115900.28;4954375;29;20035;-82
2023/09/04 03:29:13;;;;;;;11.98;5.85;;;;;;;-142.57;100.00;115900.28;4938485;29;20020;-81
2023/09/04 03:31:39;;;;;;;10.75;5.70;;;;;;;-142.57;100.00;115900.28;4934587;29;20511;-80
2023/09/04 03:34:06;;;;;;;9.90;5.45;;;;;;;-142.57;100.00;115900.28;4951833;29;20127;-82
2023/09/04 03:36:32;;;;;;;10.15;5.78;;;;;;;-142.57;100.00;115900.28;4935116;29;20043;-81
2023/09/04 03:38:57;;;;;;;15.05;5.35;;;;;;;-142.57;100.00;115900.28;4952536;29;20151;-80
2023/09/04 03:41:24;;;;;;;13.52;5.05;;;;;;;-142.57;100.00;115900.28;4953880;29;20477;-81
2023/09/04 03:43:50;;;;;;;7.53;4.75;;;;;;;-142.57;100.00;115900.28;4953782;29;20505;-79
2023/09/04 03:46:17;;;;;;;8.95;4.50;;;;;;;-142.57;100.00;115900.28;4953302;29;20127;-83
2023/09/04 03:48:43;;;;;;;9.35;4.88;;;;;;;-142.57;100.00;115900.28;4953272;29;20190;-83
2023/09/04 03:51:08;;;;;;;7.82;4.88;;;;;;;-142.57;100.00;115900.28;4954136;29;20134;-81
2023/09/04 03:53:34;;;;;;;12.82;5.35;;;;;;;-142.57;100.00;115900.28;4955228;29;20039;-79
2023/09/04 03:56:06;;;;;;;8.93;5.20;;;;;;;-142.57;100.00;115900.28;4954968;29;20035;-80
2023/09/04 03:58:32;;;;;;;9.50;4.70;;;;;;;-142.57;100.00;115900.28;4954008;29;20035;-82
2023/09/04 04:00:58;;;;;;;9.73;4.72;;;;;;;-142.57;100.00;115900.28;4941109;29;20050;-79
2023/09/04 04:03:25;;;;;;;11.98;4.90;;;;;;;-142.57;100.00;115900.28;4935606;29;20392;-81
2023/09/04 04:05:51;;;;;;;10.40;5.13;;;;;;;-142.57;100.00;115900.28;4951452;29;20036;-83
2023/09/04 04:08:19;;;;;;;12.48;5.70;;;;;;;-142.57;100.00;115900.28;4952434;29;20268;-82
2023/09/04 04:10:45;;;;;;;10.30;5.95;;;;;;;-142.57;100.00;115900.28;4945653;29;20059;-82
2023/09/04 04:13:10;;;;;;;13.60;5.63;;;;;;;-142.57;100.00;115900.28;4940141;29;20434;-80
2023/09/04 04:15:38;;;;;;;12.05;5.93;;;;;;;-142.57;100.00;115900.28;4940411;29;20044;-79
2023/09/04 04:18:04;;;;;;;11.88;5.82;;;;;;;-142.57;100.00;115900.28;4939311;29;20098;-79
2023/09/04 04:20:30;;;;;;;7.82;5.38;;;;;;;-142.57;100.00;115900.28;4949313;29;20040;-81
2023/09/04 04:22:55;;;;;;;9.35;4.80;;;;;;;-142.57;100.00;115900.28;4948852;29;20035;-82
2023/09/04 04:25:21;;;;;;;15.05;4.70;;;;;;;-142.57;100.00;115900.28;4959135;28;20066;-82
2023/09/04 04:27:46;;;;;;;14.55;5.78;;;;;;;-142.57;100.00;115900.28;4957819;28;20055;-81
2023/09/04 04:30:13;;;;;;;10.18;5.28;;;;;;;-142.57;100.00;115900.28;4958101;29;20374;-81
2023/09/04 04:32:38;;;;;;;9.93;5.28;;;;;;;-142.57;100.00;115900.28;4941368;28;20057;-81
2023/09/04 04:35:05;;;;;;;7.93;4.70;;;;;;;-142.57;100.00;115900.28;4938775;29;20536;-82
2023/09/04 04:37:31;;;;;;;12.60;5.20;;;;;;;-142.57;100.00;115900.28;4941040;29;20477;-81
2023/09/04 04:39:56;;;;;;;11.93;4.72;;;;;;;-142.57;100.00;115900.28;4956610;29;20039;-81
2023/09/04 04:42:25;;;;;;;8.05;4.20;;;;;;;-142.57;100.00;115900.28;4948816;29;20063;-83
2023/09/04 04:44:55;;;;;;;10.13;5.63;;;;;;;-142.57;100.00;115900.28;4943348;29;20047;-80
2023/09/04 04:47:20;;;;;;;10.93;5.13;;;;;;;-142.57;100.00;115900.28;4961622;28;20027;-80
2023/09/04 04:49:49;;;;;;;8.18;4.80;;;;;;;-142.57;100.00;115900.28;4944756;29;20039;-83
2023/09/04 04:52:15;;;;;;;9.45;5.30;;;;;;;-142.57;100.00;115900.28;4955322;28;20474;-81
2023/09/04 04:54:40;;;;;;;7.82;5.05;;;;;;;-142.57;100.00;115900.28;4988167;28;20046;-81
2023/09/04 04:57:06;;;;;;;10.32;4.82;;;;;;;-142.57;100.00;115900.28;4992824;28;20027;-78
2023/09/04 04:59:32;;;;;;;15.65;5.03;;;;;;;-142.57;100.00;115900.28;4988614;28;20035;-80
2023/09/04 05:02:00;;;;;;;13.98;5.00;;;;;;;-142.57;100.00;115900.28;4955551;29;20031;-78
2023/09/04 05:04:26;;;;;;;8.45;5.15;;;;;;;-142.57;100.00;115900.28;4965464;28;20032;-81
2023/09/04 05:06:52;;;;;;;10.63;5.57;;;;;;;-142.57;100.00;115900.28;4951387;29;21431;-85
2023/09/04 05:09:17;;;;;;;7.95;4.88;;;;;;;-142.57;100.00;115900.28;4968197;29;20058;-83
2023/09/04 05:11:44;;;;;;;14.32;5.43;;;;;;;-142.57;100.00;115900.28;4954221;28;20922;-82
2023/09/04 05:14:10;;;;;;;15.82;5.10;;;;;;;-142.57;100.00;115900.28;4964614;29;20107;-81
2023/09/04 05:16:36;;;;;;;12.95;4.90;;;;;;;-142.57;100.00;115900.28;4952126;29;20422;-81
2023/09/04 05:19:01;;;;;;;15.80;5.20;;;;;;;-142.57;100.00;115900.28;4951790;28;20027;-79
2023/09/04 05:21:27;;;;;;;9.90;5.18;;;;;;;-142.57;100.00;115900.28;4947079;29;20066;-80
2023/09/04 05:23:53;;;;;;;9.00;4.40;;;;;;;-142.57;100.00;115900.28;4939325;29;20035;-82
2023/09/04 05:26:18;;;;;;;12.07;5.00;;;;;;;-142.57;100.00;115900.28;4948524;29;20452;-79
2023/09/04 05:28:44;;;;;;;9.65;5.38;;;;;;;-142.57;100.00;115900.28;4952301;29;20042;-80
2023/09/04 05:31:09;;;;;;;9.45;4.65;;;;;;;-142.57;99.61;115900.28;4949996;29;20066;-79
2023/09/04 05:33:35;;;;;;;7.93;4.57;;;;;;;-142.57;97.07;115900.28;4944372;29;20031;-82
2023/09/04 05:36:00;;;;;;;11.77;5.35;;;;;;;-142.57;94.13;115900.28;4957244;29;20039;-84
2023/09/04 05:38:26;;;;;;;11.32;4.93;;;;;;;-142.57;93.25;115900.28;4957184;29;20022;-79
2023/09/04 05:40:55;;;;;;;9.13;4.82;;;;;;;-142.57;94.05;115900.28;4957518;28;20094;-81
2023/09/04 05:43:21;;;;;;;8.40;5.07;;;;;;;-142.57;93.02;115900.28;4957106;28;20035;-78
2023/09/04 05:45:47;;;;;;;11.70;5.53;;;;;;;-142.57;92.96;115900.28;4956908;28;20044;-78
2023/09/04 05:48:12;;;;;;;8.45;4.85;;;;;;;-142.57;88.04;115900.28;4956808;28;20047;-83
2023/09/04 05:50:38;;;;;;;8.23;5.10;;;;;;;-142.57;88.99;115900.28;4970112;28;20038;-81
2023/09/04 05:53:03;;;;;;;15.98;5.90;;;;;;;-142.57;90.28;115900.28;4976229;28;20082;-80
2023/09/04 05:55:29;;;;;;;12.80;7.18;;;;;;;-142.57;88.88;115900.28;4976251;28;20530;-80
2023/09/04 05:57:54;;;;;;;16.45;9.35;;;;;;;-142.57;88.46;115900.28;4976431;28;20031;-84
2023/09/04 06:00:21;;;;;;;22.35;11.68;;;;;;;-142.57;91.49;115900.28;4976346;28;20033;-82
2023/09/04 06:02:47;;;;;;;22.35;13.70;;;;;;;-142.57;91.71;115900.28;4976857;28;20035;-83
2023/09/04 06:05:13;;;;;;;23.00;15.43;;;;;;;-142.57;92.32;115900.28;4976572;28;20042;-83
2023/09/04 06:07:39;;;;;;;29.80;16.35;;;;;;;-142.57;89.45;115900.28;4975902;28;20092;-82
2023/09/04 06:10:05;;;;;;;24.63;16.92;;;;;;;-142.57;86.81;115900.28;4992597;28;20038;-80
2023/09/04 06:12:31;;;;;;;32.92;19.55;;;;;;;-142.57;89.37;115900.28;4982138;28;20043;-84
2023/09/04 06:14:56;;;;;;;23.48;17.30;;;;;;;-142.57;85.03;115900.28;4977227;28;20071;-81
2023/09/04 06:17:24;;;;;;;22.73;16.27;;;;;;;-142.57;84.28;115900.28;4977599;28;20101;-84
2023/09/04 06:19:50;;;;;;;23.50;16.83;;;;;;;-142.57;87.93;115900.28;4977640;28;20443;-86
2023/09/04 06:22:15;;;;;;;21.40;16.20;;;;;;;-142.57;88.95;115900.28;4976972;28;20035;-88
2023/09/04 06:24:41;;;;;;;23.25;16.83;;;;;;;-142.57;90.22;115900.28;4975924;28;20042;-86
2023/09/04 06:27:06;;;;;;;23.65;17.35;;;;;;;-142.57;87.59;115900.28;4979319;28;20038;-86
2023/09/04 06:29:33;;;;;;;25.40;16.90;;;;;;;-142.57;89.47;115900.28;4975893;28;20034;-88
2023/09/04 06:31:58;;;;;;;23.48;16.58;;;;;;;-142.57;89.57;115900.28;4976221;28;20396;-81
2023/09/04 06:34:24;;;;;;;24.00;16.70;;;;;;;-142.57;90.17;115900.28;4975360;28;20507;-84
2023/09/04 06:36:49;;;;;;;26.80;17.27;;;;;;;-142.57;92.82;115900.28;4977240;28;20437;-81
2023/09/04 06:39:14;;;;;;;27.20;16.25;;;;;;;-142.57;93.23;115900.28;4994083;28;20065;-82
2023/09/04 06:41:42;;;;;;;21.23;16.23;;;;;;;-142.57;91.77;115900.28;4991550;28;20066;-80
2023/09/04 06:44:07;;;;;;;29.38;16.40;;;;;;;-142.57;92.51;115900.28;4987981;28;20042;-79
2023/09/04 06:46:39;;;;;;;20.70;16.50;;;;;;;-142.57;91.22;115900.28;4983807;28;20065;-86
2023/09/04 06:49:05;;;;;;;30.13;19.70;;;;;;;-142.57;92.38;115900.28;4979103;28;20069;-80
2023/09/04 06:51:32;;;;;;;24.65;17.27;;;;;;;-142.57;84.29;115900.28;4947615;28;20106;-83
2023/09/04 06:53:58;;;;;;;29.88;19.63;;;;;;;-142.57;79.57;115900.28;4978525;28;20472;-86
2023/09/04 06:56:24;;;;;;;33.83;20.88;;;;;;;-142.57;81.83;115900.28;4977419;28;20051;-86
2023/09/04 06:58:52;;;;;;;31.13;19.67;;;;;;;-142.57;85.91;115900.28;4977884;28;20066;-87
2023/09/04 07:01:18;;;;;;;29.58;21.17;;;;;;;-142.57;84.85;115900.28;4977559;28;20055;-87
2023/09/04 07:03:47;;;;;;;30.85;18.92;;;;;;;-142.57;85.04;115900.28;4977274;28;20038;-89
2023/09/04 07:06:16;;;;;;;31.73;19.88;;;;;;;-142.57;87.12;115900.28;4977498;28;20035;-88
2023/09/04 07:08:42;;;;;;;31.13;20.52;;;;;;;-142.57;94.84;115900.28;4949700;28;20043;-82
2023/09/04 07:11:07;;;;;;;39.80;23.13;;;;;;;-142.57;100.00;115900.28;4935842;29;20485;-86
2023/09/04 07:13:33;;;;;;;34.22;22.02;;;;;;;-142.57;99.19;115900.28;4951126;28;20046;-81
2023/09/04 07:15:58;;;;;;;35.95;24.98;;;;;;;-142.57;98.98;115900.28;4946256;28;20469;-82
2023/09/04 07:18:24;;;;;;;38.97;25.40;;;;;;;-142.57;97.79;115900.28;4949544;28;20484;-80
2023/09/04 07:20:50;;;;;;;36.17;23.20;;;;;;;-142.57;93.82;115900.28;4953754;28;20433;-86
2023/09/04 07:23:15;;;;;;;35.10;23.75;;;;;;;-142.57;95.03;115900.28;4953054;28;20031;-86
2023/09/04 07:25:41;;;;;;;35.80;22.73;;;;;;;-142.57;94.47;115900.28;4952610;28;20031;-80
2023/09/04 07:28:06;;;;;;;31.10;20.75;;;;;;;-142.57;89.65;115900.28;4940961;28;20122;-85
2023/09/04 07:30:32;;;;;;;34.65;20.95;;;;;;;-142.57;75.21;115900.28;4940957;28;20047;-79
2023/09/04 07:32:57;;;;;;;29.73;19.40;;;;;;;-142.57;77.98;115900.28;4945070;28;20058;-80
2023/09/04 07:35:23;;;;;;;27.42;19.70;;;;;;;-142.57;76.65;115900.28;4952674;28;20042;-82
2023/09/04 07:37:49;;;;;;;30.83;21.65;;;;;;;-142.57;76.98;115900.28;4953557;28;20027;-80
2023/09/04 07:40:14;;;;;;;31.30;20.77;;;;;;;-142.57;75.42;115900.28;4951907;28;20043;-82
2023/09/04 07:42:42;;;;;;;32.55;20.30;;;;;;;-142.57;77.51;115900.28;4954152;28;20057;-82
2023/09/04 07:45:08;;;;;;;36.33;23.70;;;;;;;-142.57;79.15;115900.28;4955590;29;20051;-80
2023/09/04 07:47:34;;;;;;;30.58;19.98;;;;;;;-142.57;84.36;115900.28;4954377;28;20692;-82
2023/09/04 07:49:59;;;;;;;29.92;20.08;;;;;;;-142.57;80.46;115900.28;4949125;29;20035;-84
2023/09/04 07:52:25;;;;;;;39.33;24.05;;;;;;;-142.57;80.42;115900.28;4955431;28;20047;-87
2023/09/04 07:54:50;;;;;;;37.05;23.30;;;;;;;-142.57;83.40;115900.28;4951145;29;20445;-84
2023/09/04 07:57:16;;;;;;;32.85;22.33;;;;;;;-142.57;81.59;115900.28;4952208;29;20032;-87
2023/09/04 07:59:44;;;;;;;35.85;23.92;;;;;;;-142.57;84.73;115900.28;4958814;28;20071;-83
2023/09/04 08:02:10;;;;;;;46.88;26.15;;;;;;;-142.57;87.76;115900.28;4956217;29;20471;-83
2023/09/04 08:04:39;;;;;;;36.72;26.10;;;;;;;-142.57;92.30;115900.28;4947825;28;20155;-83
2023/09/04 08:07:05;;;;;;;35.80;24.55;;;;;;;-142.57;89.79;115900.28;4947665;28;20796;-86
2023/09/04 08:09:30;;;;;;;35.20;25.92;;;;;;;-142.57;91.82;115900.28;4957756;29;20039;-87
2023/09/04 08:11:56;;;;;;;44.38;26.90;;;;;;;-142.57;92.03;115900.28;4948668;29;20130;-81
2023/09/04 08:14:21;;;;;;;44.45;28.00;;;;;;;-142.57;91.18;115900.28;4950891;28;20414;-82
2023/09/04 08:16:47;;;;;;;42.55;27.45;;;;;;;-142.57;95.21;115900.28;4955265;28;20060;-83
2023/09/04 08:19:12;;;;;;;39.97;26.35;;;;;;;-142.57;94.37;115900.28;4953609;29;20047;-82
2023/09/04 08:21:39;;;;;;;36.30;25.63;;;;;;;-142.57;94.51;115900.28;4937240;28;20035;-83
2023/09/04 08:24:05;;;;;;;49.22;28.85;;;;;;;-142.57;93.66;115900.28;4948146;28;20136;-83
2023/09/04 08:26:30;;;;;;;39.95;26.95;;;;;;;-142.57;91.46;115900.28;4954798;28;20035;-84
2023/09/04 08:28:56;;;;;;;40.95;27.02;;;;;;;-142.57;91.26;115900.28;4950245;28;20570;-85
2023/09/04 08:31:21;;;;;;;43.05;27.40;;;;;;;-142.57;88.49;115900.28;4932271;29;20023;-85
2023/09/04 08:33:47;;;;;;;41.10;27.25;;;;;;;-142.57;88.47;115900.28;4949872;28;20039;-84
2023/09/04 08:36:13;;;;;;;44.22;28.75;;;;;;;-142.57;83.89;115900.28;4955396;28;20035;-83
2023/09/04 08:38:38;;;;;;;38.40;24.23;;;;;;;-142.57;80.38;115900.28;4952326;28;20057;-85
2023/09/04 08:41:08;;;;;;;35.83;25.17;;;;;;;-142.57;72.27;115900.28;4955394;28;20027;-84
2023/09/04 08:43:40;;;;;;;37.03;23.23;;;;;;;-142.57;68.00;115900.28;4944525;28;20027;-84
2023/09/04 08:46:07;;;;;;;38.60;24.95;;;;;;;-142.57;65.23;115900.28;4950070;29;20086;-83
2023/09/04 08:48:38;;;;;;;33.92;23.83;;;;;;;-142.57;65.15;115900.28;4958273;28;20505;-86
2023/09/04 08:51:04;;;;;;;37.97;25.30;;;;;;;-142.57;64.76;115900.28;4955888;29;20039;-87
2023/09/04 08:53:31;;;;;;;38.60;24.55;;;;;;;-142.57;65.45;115900.28;4941815;28;20035;-88
2023/09/04 08:55:57;;;;;;;34.08;23.65;;;;;;;-142.57;65.42;115900.28;4950808;29;20047;-86
2023/09/04 08:58:24;;;;;;;40.38;23.58;;;;;;;-142.57;66.27;115900.28;4957288;29;20039;-84
2023/09/04 09:00:50;;;;;;;43.60;25.80;;;;;;;-142.57;65.21;115900.28;4955185;28;20047;-83
2023/09/04 09:03:16;;;;;;;42.45;25.75;;;;;;;-142.57;62.64;115900.28;4945327;28;20062;-83
2023/09/04 09:05:46;;;;;;;44.20;25.42;;;;;;;-142.57;61.92;115900.28;4938471;28;20038;-83
2023/09/04 09:08:12;;;;;;;37.58;24.17;;;;;;;-142.57;58.43;115900.28;4954555;28;20485;-83
2023/09/04 09:10:39;;;;;;;39.67;24.02;;;;;;;-142.57;57.28;115900.28;4949337;29;20039;-84
2023/09/04 09:13:07;;;;;;;36.55;25.38;;;;;;;-142.57;59.02;115900.28;4950472;29;20407;-87
2023/09/04 09:15:33;;;;;;;32.63;22.40;;;;;;;-142.57;59.61;115900.28;4945783;28;20078;-85
2023/09/04 09:25:39;;;;;;;37.47;23.35;;;;;;;-142.57;54.91;115900.28;4956547;29;20042;-81
2023/09/04 09:28:06;;;;;;;30.48;22.02;;;;;;;-142.57;54.52;115900.28;4957170;28;20558;-81
2023/09/04 09:30:37;;;;;;;31.08;22.42;;;;;;;-142.57;56.33;115900.28;4956977;28;20043;-81
2023/09/04 09:33:07;;;;;;;36.15;23.15;;;;;;;-142.57;58.22;115900.28;4956728;28;20461;-86
2023/09/04 09:35:40;;;;;;;37.58;24.23;;;;;;;-142.57;58.03;115900.28;4955656;29;20386;-85
2023/09/04 09:38:05;;;;;;;34.78;21.67;;;;;;;-142.57;54.98;115900.28;4957130;28;20047;-81
2023/09/04 09:40:31;;;;;;;42.83;23.55;;;;;;;-142.57;53.30;115900.28;4953109;29;20039;-83
2023/09/04 09:42:59;;;;;;;28.75;20.52;;;;;;;-142.57;52.16;115900.28;4955636;29;20496;-78
2023/09/04 09:45:33;;;;;;;34.50;20.77;;;;;;;-142.57;50.96;115900.28;4955975;29;20086;-86
2023/09/04 09:48:03;;;;;;;28.75;22.50;;;;;;;-142.57;49.49;115900.28;4957672;29;20035;-87
2023/09/04 09:50:29;;;;;;;29.60;22.20;;;;;;;-142.57;49.79;115900.28;4956756;29;20449;-78
2023/09/04 09:53:03;;;;;;;30.98;21.60;;;;;;;-142.57;51.78;115900.28;4957088;28;20078;-90
2023/09/04 09:55:30;;;;;;;32.45;21.67;;;;;;;-142.57;52.50;115900.28;4957116;29;20047;-89
2023/09/04 09:57:58;;;;;;;32.53;22.60;;;;;;;-142.57;51.19;115900.28;4959414;29;20042;-89
2023/09/04 10:00:26;;;;;;;28.02;22.15;;;;;;;-142.57;50.61;115900.28;4957630;29;20039;-93
2023/09/04 10:02:53;;;;;;;35.90;24.30;;;;;;;-142.57;49.61;115900.28;4959681;29;20036;-87
2023/09/04 10:05:20;;;;;;;29.52;22.02;;;;;;;-142.57;48.80;115900.28;4958221;28;20485;-89
2023/09/04 10:07:58;;;;;;;36.03;21.40;;;;;;;-142.57;47.71;115900.28;4957666;29;20038;-90
2023/09/04 10:10:24;;;;;;;29.73;22.02;;;;;;;-142.57;48.94;115900.28;4957765;29;20105;-86
2023/09/04 10:12:54;;;;;;;30.00;22.52;;;;;;;-142.57;49.54;115900.28;4955896;29;20039;-87
2023/09/04 10:15:25;;;;;;;32.05;21.13;;;;;;;-142.57;48.13;115900.28;4957555;29;20129;-86
2023/09/04 10:18:06;;;;;;;31.67;21.30;;;;;;;-142.57;46.92;115900.28;4956973;28;20532;-82
2023/09/04 10:20:34;;;;;;;31.85;22.90;;;;;;;-142.57;46.67;115900.28;4957446;29;20555;-85
2023/09/04 10:23:08;;;;;;;29.35;21.65;;;;;;;-142.57;46.48;115900.28;4957611;28;20050;-87
2023/09/04 10:25:47;;;;;;;34.97;23.85;;;;;;;-142.57;49.38;115900.28;4960693;29;20035;-90
2023/09/04 10:28:27;;;;;;;31.20;21.55;;;;;;;-142.57;49.38;115900.28;4962277;29;20378;-90
2023/09/04 10:30:59;;;;;;;30.83;19.90;;;;;;;-142.57;48.34;115900.28;4944408;29;20358;-89
2023/09/04 10:33:31;;;;;;;32.95;20.77;;;;;;;-142.57;47.94;115900.28;4948656;28;20043;-86
2023/09/04 10:36:03;;;;;;;28.27;17.80;;;;;;;-142.57;46.88;115900.28;4961037;28;20066;-92
2023/09/04 10:38:33;;;;;;;34.00;20.25;;;;;;;-142.57;46.02;115900.28;4938557;29;20039;-89
2023/09/04 10:41:00;;;;;;;22.60;18.05;;;;;;;-142.57;45.59;115900.28;4952829;29;20120;-88
2023/09/04 10:43:39;;;;;;;30.35;21.58;;;;;;;-142.57;48.01;115900.28;4956806;28;20050;-90
2023/09/04 10:46:06;;;;;;;29.75;19.50;;;;;;;-142.57;47.45;115900.28;4978779;28;20473;-87
2023/09/04 10:48:49;;;;;;;28.13;19.13;;;;;;;-142.57;47.13;115900.28;4956224;28;20101;-91
2023/09/04 11:00:30;;;;;;;;;;;;;;;-142.57;47.50;115900.28;4991401;23;20117;-90
2023/09/04 11:02:57;;;;;;;21.75;15.52;;;;;;;-142.57;47.30;115900.28;5016690;28;19949;-87
2023/09/04 11:05:25;;;;;;;26.50;14.23;;;;;;;-142.57;45.07;115900.28;5011314;28;20050;-86
2023/09/04 11:07:54;;;;;;;22.95;13.25;;;;;;;-142.57;45.72;115900.28;5005319;28;20042;-88
2023/09/04 11:10:23;;;;;;;21.75;12.60;;;;;;;-142.57;46.37;115900.28;5017434;28;20048;-88
2023/09/04 11:12:49;;;;;;;22.45;11.80;;;;;;;-142.57;48.15;115900.28;5014958;28;20041;-88
2023/09/04 11:15:16;;;;;;;18.77;11.63;;;;;;;-142.57;49.13;115900.28;5016888;28;20030;-88